Fort Indiantown, Pennsylvania
Current Conditions -  °F | °C
As of 5:58 AM on Thursday 18 Dec 2014 (Local Time) from KMUI Reporting Station
Overcast Overcast  
Wind Chill: 26°   Ceiling: 3700
Heat Index: 34°   Visibility: 10mi
Dew Point: 19°   Wind: 10mph
Humidity: 55%   Direction: 300°WNW
Pressure: 30.05"   Gusts: 20mph
Location:  40.3819°N, 76.5718°W
Report Text: KMUI 181058Z AUTO 30009G17KT 260V320 10SM OVC037 01/M07 A3005 RMK AO2 SLP183 T00101072
Loading
Personal Weather Stations






























Interactive Weather Map New forecast layout! Learn more

10-Day Weather Forecast

Advertisements
Track Severe Weather on mobile